createdAt,value
2022-08-22T00:01:38.830Z,38.58
2022-08-22T00:06:54.773Z,38.24
2022-08-22T00:12:29.607Z,38.53
2022-08-22T00:17:43.551Z,37.94
2022-08-22T00:23:15.799Z,37.63
2022-08-22T00:28:34.805Z,38.24
2022-08-22T00:34:00.522Z,38.75
2022-08-22T00:39:19.058Z,38.23
2022-08-22T00:45:05.734Z,37.98
2022-08-22T00:50:38.651Z,38.45
2022-08-22T00:56:12.875Z,38.13
2022-08-22T01:01:20.047Z,37.88
2022-08-22T01:06:49.971Z,37.96
2022-08-22T01:12:12.010Z,38.18
2022-08-22T01:17:22.936Z,38.58
2022-08-22T01:22:43.739Z,38.09
2022-08-22T01:27:55.581Z,38.05
2022-08-22T01:33:33.918Z,39.03
2022-08-22T01:38:58.852Z,38.47
2022-08-22T01:44:28.058Z,38.62
2022-08-22T01:49:42.482Z,38.29
2022-08-22T01:55:03.307Z,38.38
2022-08-22T02:00:17.294Z,38.76
2022-08-22T02:05:31.804Z,39.01
2022-08-22T02:11:09.310Z,38.58
2022-08-22T02:16:24.107Z,40.13
2022-08-22T02:21:45.032Z,39.98
2022-08-22T02:27:12.428Z,39.49
2022-08-22T02:32:40.537Z,39.37
2022-08-22T02:38:25.140Z,38.98
2022-08-22T02:43:39.601Z,38.90
2022-08-22T02:48:48.604Z,38.45
2022-08-22T02:53:57.193Z,38.71
2022-08-22T02:59:30.231Z,38.62
2022-08-22T03:04:32.466Z,38.70
2022-08-22T03:09:42.611Z,38.64
2022-08-22T03:15:06.982Z,38.50
2022-08-22T03:20:36.070Z,39.33
2022-08-22T03:25:49.922Z,39.42
2022-08-22T03:31:07.992Z,39.37
2022-08-22T03:36:15.801Z,38.87
2022-08-22T03:41:32.993Z,38.96
2022-08-22T03:47:07.166Z,38.56
2022-08-22T03:53:18.507Z,39.34
2022-08-22T03:58:30.438Z,39.05
2022-08-22T04:03:54.204Z,40.12
2022-08-22T04:09:43.066Z,40.50
2022-08-22T04:15:07.578Z,40.23
2022-08-22T04:20:26.686Z,40.47
2022-08-22T04:25:38.351Z,40.29
2022-08-22T04:31:19.058Z,39.80
2022-08-22T04:36:29.306Z,39.99
2022-08-22T04:41:31.406Z,40.25
2022-08-22T04:46:45.794Z,40.02
2022-08-22T04:51:59.372Z,39.73
2022-08-22T04:57:07.125Z,40.32
2022-08-22T05:02:12.186Z,40.54
2022-08-22T05:07:21.426Z,40.91
2022-08-22T05:12:32.890Z,40.32
2022-08-22T05:17:38.886Z,40.52
2022-08-22T05:22:47.061Z,40.61
2022-08-22T05:27:56.390Z,41.21
2022-08-22T05:33:33.872Z,40.75
2022-08-22T05:38:47.474Z,40.52
2022-08-22T05:43:51.405Z,40.53
2022-08-22T05:48:58.962Z,41.21
2022-08-22T05:54:11.942Z,41.80
2022-08-22T05:59:38.473Z,41.82
2022-08-22T06:04:52.529Z,41.79
2022-08-22T06:10:30.106Z,41.89
2022-08-22T06:15:53.433Z,41.15
2022-08-22T06:21:00.386Z,40.57
2022-08-22T06:26:05.564Z,39.83
2022-08-22T06:31:29.171Z,39.23
2022-08-22T06:36:35.298Z,39.81
2022-08-22T06:41:48.129Z,39.53
2022-08-22T06:46:55.601Z,39.08
2022-08-22T06:52:02.478Z,38.84
2022-08-22T06:57:06.833Z,38.53
2022-08-22T07:02:21.852Z,38.78
2022-08-22T07:07:27.044Z,38.25
2022-08-22T07:12:37.925Z,39.72
2022-08-22T07:17:54.482Z,38.79
2022-08-22T07:23:28.794Z,41.65
2022-08-22T07:28:51.316Z,40.25
2022-08-22T07:34:18.274Z,38.91
2022-08-22T07:39:27.391Z,38.56
2022-08-22T07:44:48.473Z,38.15
2022-08-22T07:50:03.843Z,38.38
2022-08-22T07:55:18.878Z,38.54
2022-08-22T08:00:24.074Z,39.52
2022-08-22T08:05:29.587Z,40.04
2022-08-22T08:10:39.682Z,41.52
2022-08-22T08:15:45.849Z,40.71
2022-08-22T08:21:00.486Z,39.71
2022-08-22T08:26:08.606Z,40.56
2022-08-22T08:31:28.996Z,42.83
2022-08-22T08:36:49.062Z,41.62
2022-08-22T08:42:00.917Z,41.61
2022-08-22T08:47:15.334Z,39.61
2022-08-22T08:52:35.818Z,40.09
2022-08-22T08:57:50.086Z,44.28
2022-08-22T09:02:55.420Z,39.74
2022-08-22T09:08:39.922Z,47.79
2022-08-22T09:13:51.018Z,50.08
2022-08-22T09:19:11.598Z,46.49
2022-08-22T09:24:47.260Z,45.05
2022-08-22T09:30:13.255Z,52.58
2022-08-22T09:35:30.562Z,48.22
2022-08-22T09:40:39.311Z,45.33
2022-08-22T09:45:50.708Z,47.29
2022-08-22T09:51:32.718Z,49.87
2022-08-22T09:56:47.286Z,45.31
2022-08-22T10:02:02.462Z,45.02
2022-08-22T10:07:41.885Z,46.27
2022-08-22T10:13:11.909Z,46.05
2022-08-22T10:18:53.951Z,40.28
2022-08-22T10:24:09.414Z,42.79
2022-08-22T10:29:30.118Z,40.25
2022-08-22T10:34:39.446Z,40.10
2022-08-22T10:39:59.323Z,42.82
2022-08-22T10:45:43.649Z,44.84
2022-08-22T10:50:53.156Z,44.23
2022-08-22T10:56:14.310Z,43.44
2022-08-22T11:01:41.022Z,41.65
2022-08-22T11:06:51.716Z,39.16
2022-08-22T11:12:04.928Z,43.58
2022-08-22T11:17:27.957Z,45.22
2022-08-22T11:22:55.638Z,45.08
2022-08-22T11:28:45.549Z,44.69
2022-08-22T11:33:59.262Z,40.93
2022-08-22T11:39:25.609Z,41.59
2022-08-22T11:44:34.342Z,41.45
2022-08-22T11:49:58.139Z,41.74
2022-08-22T11:55:19.256Z,40.50
2022-08-22T12:00:26.736Z,44.02
2022-08-22T12:05:45.945Z,41.73
2022-08-22T12:11:06.080Z,41.53
2022-08-22T12:16:19.965Z,40.56
2022-08-22T12:21:24.669Z,39.00
2022-08-22T12:26:41.894Z,40.58
2022-08-22T12:31:58.998Z,37.20
2022-08-22T12:37:09.977Z,36.15
2022-08-22T12:42:18.053Z,39.12
2022-08-22T12:47:49.536Z,38.93
2022-08-22T12:52:57.614Z,37.65
2022-08-22T12:58:08.259Z,35.88
2022-08-22T13:03:25.417Z,34.45
2022-08-22T13:08:43.694Z,34.49
2022-08-22T13:14:01.202Z,35.00
2022-08-22T13:19:18.008Z,36.35
2022-08-22T13:24:38.639Z,36.28
2022-08-22T13:29:49.585Z,33.82
2022-08-22T13:34:55.835Z,35.26
2022-08-22T13:40:04.837Z,33.50
2022-08-22T13:45:15.569Z,33.85
2022-08-22T13:50:22.544Z,32.74
2022-08-22T13:55:49.053Z,30.01
2022-08-22T14:01:35.320Z,30.35
2022-08-22T14:06:49.903Z,28.73
2022-08-22T14:11:59.741Z,28.58
2022-08-22T14:17:03.443Z,28.38
2022-08-22T14:22:09.918Z,28.00
2022-08-22T14:27:39.658Z,27.35
2022-08-22T14:32:54.458Z,27.67
2022-08-22T14:38:17.479Z,28.39
2022-08-22T14:43:35.602Z,24.85
2022-08-22T14:48:46.858Z,24.45
2022-08-22T14:53:50.296Z,25.23
2022-08-22T14:59:02.256Z,25.33
2022-08-22T15:04:16.509Z,21.16
2022-08-22T15:09:40.485Z,22.21
2022-08-22T15:14:52.368Z,22.44
2022-08-22T15:20:10.906Z,20.23
2022-08-22T15:25:22.809Z,20.13
2022-08-22T15:30:44.363Z,18.96
2022-08-22T15:35:49.056Z,23.38
2022-08-22T15:40:52.487Z,21.51
2022-08-22T15:46:32.872Z,21.56
2022-08-22T15:51:38.080Z,20.40
2022-08-22T15:57:09.985Z,21.46
2022-08-22T16:02:39.027Z,22.12
2022-08-22T16:07:49.653Z,21.04
2022-08-22T16:13:32.209Z,22.96
2022-08-22T16:18:34.292Z,20.78
2022-08-22T16:23:53.814Z,25.30
2022-08-22T16:29:14.998Z,22.27
2022-08-22T16:34:38.281Z,22.30
2022-08-22T16:40:01.903Z,22.83
2022-08-22T16:45:05.116Z,22.40
2022-08-22T16:50:18.458Z,22.18
2022-08-22T16:55:36.983Z,22.86
2022-08-22T17:00:45.685Z,23.47
2022-08-22T17:06:10.726Z,22.98
2022-08-22T17:11:48.443Z,23.01
2022-08-22T17:17:11.753Z,22.37
2022-08-22T17:22:52.080Z,22.73
2022-08-22T17:28:06.562Z,21.52
2022-08-22T17:33:28.564Z,21.24
2022-08-22T17:38:59.426Z,22.30
2022-08-22T17:44:32.463Z,20.87
2022-08-22T17:49:46.238Z,20.01
2022-08-22T17:55:12.549Z,20.47
2022-08-22T18:00:30.784Z,19.53
2022-08-22T18:05:39.905Z,19.09
2022-08-22T18:11:09.071Z,20.09
2022-08-22T18:16:35.371Z,20.69
2022-08-22T18:21:47.328Z,20.54
2022-08-22T18:27:02.886Z,20.66
2022-08-22T18:32:14.830Z,21.27
2022-08-22T18:37:39.051Z,22.31
2022-08-22T18:42:55.225Z,22.58
2022-08-22T18:47:57.654Z,23.40
2022-08-22T18:53:00.456Z,23.11
2022-08-22T18:58:29.590Z,22.97
2022-08-22T19:03:48.206Z,23.17
2022-08-22T19:09:02.192Z,23.34
2022-08-22T19:14:13.341Z,24.57
2022-08-22T19:19:23.362Z,25.91
2022-08-22T19:24:29.482Z,26.78
2022-08-22T19:29:34.383Z,26.72
2022-08-22T19:34:40.753Z,27.75
2022-08-22T19:39:42.849Z,28.63
2022-08-22T19:45:07.054Z,28.15
2022-08-22T19:50:18.015Z,29.20
2022-08-22T19:56:06.013Z,27.08
2022-08-22T20:01:44.024Z,26.34
2022-08-22T20:07:14.556Z,26.17
2022-08-22T20:12:44.358Z,25.63
2022-08-22T20:18:11.655Z,25.93
2022-08-22T20:23:25.230Z,25.41
2022-08-22T20:28:44.604Z,24.73
2022-08-22T20:33:53.826Z,28.76
2022-08-22T20:39:08.521Z,27.06
2022-08-22T20:44:13.802Z,28.33
2022-08-22T20:49:30.117Z,30.14
2022-08-22T20:54:38.043Z,31.59
2022-08-22T20:59:49.333Z,31.11
2022-08-22T21:05:03.377Z,33.34
2022-08-22T21:10:44.425Z,33.47
2022-08-22T21:15:51.439Z,30.48
2022-08-22T21:20:54.270Z,30.75
2022-08-22T21:26:01.527Z,31.62
2022-08-22T21:31:13.582Z,31.21
2022-08-22T21:36:20.382Z,32.46
2022-08-22T21:41:29.459Z,31.82
2022-08-22T21:46:31.616Z,33.05
2022-08-22T21:51:36.748Z,32.51
2022-08-22T21:56:38.951Z,32.41
2022-08-22T22:01:42.731Z,31.80
2022-08-22T22:06:48.045Z,32.67
2022-08-22T22:11:50.545Z,32.22
2022-08-22T22:16:52.749Z,31.66
2022-08-22T22:21:54.847Z,31.40
2022-08-22T22:26:57.367Z,31.46
2022-08-22T22:31:59.614Z,31.89
2022-08-22T22:37:01.782Z,32.76
2022-08-22T22:42:04.809Z,32.43
2022-08-22T22:47:07.208Z,32.45
2022-08-22T22:52:11.748Z,32.53
2022-08-22T22:57:16.199Z,33.95
2022-08-22T23:02:27.603Z,31.99
2022-08-22T23:07:29.723Z,32.14
2022-08-22T23:12:37.516Z,35.04
2022-08-22T23:17:41.125Z,34.27
2022-08-22T23:22:45.418Z,33.76
2022-08-22T23:27:52.136Z,33.67
2022-08-22T23:32:55.795Z,32.81
2022-08-22T23:37:57.917Z,32.86
2022-08-22T23:43:00.174Z,32.58
2022-08-22T23:48:02.424Z,33.71
2022-08-22T23:53:04.533Z,33.05
2022-08-22T23:58:06.650Z,33.52
